createdAt,value
2022-11-08T00:01:44.411Z,18.36
2022-11-08T00:04:36.681Z,18.36
2022-11-08T00:07:45.941Z,18.35
2022-11-08T00:10:54.148Z,18.36
2022-11-08T00:14:00.665Z,18.36
2022-11-08T00:16:51.193Z,18.36
2022-11-08T00:19:42.646Z,18.36
2022-11-08T00:22:34.935Z,18.36
2022-11-08T00:25:25.606Z,18.36
2022-11-08T00:28:17.209Z,18.36
2022-11-08T00:31:09.806Z,18.36
2022-11-08T00:34:01.856Z,18.36
2022-11-08T00:36:53.298Z,18.34
2022-11-08T00:39:44.308Z,18.33
2022-11-08T00:42:35.832Z,18.31
2022-11-08T00:45:26.912Z,18.30
2022-11-08T00:48:17.656Z,18.28
2022-11-08T00:51:11.257Z,18.28
2022-11-08T00:54:01.721Z,18.28
2022-11-08T00:56:52.568Z,18.29
2022-11-08T00:59:42.838Z,18.29
2022-11-08T01:02:34.262Z,18.30
2022-11-08T01:05:24.621Z,18.28
2022-11-08T01:08:17.085Z,18.27
2022-11-08T01:11:15.553Z,18.27
2022-11-08T01:14:05.847Z,18.26
2022-11-08T01:16:57.052Z,18.24
2022-11-08T01:19:47.868Z,18.23
2022-11-08T01:22:38.399Z,18.22
2022-11-08T01:25:29.010Z,18.20
2022-11-08T01:28:22.471Z,18.19
2022-11-08T01:31:14.571Z,18.18
2022-11-08T01:34:07.168Z,18.17
2022-11-08T01:36:59.824Z,18.17
2022-11-08T01:39:51.106Z,18.15
2022-11-08T01:42:42.863Z,18.14
2022-11-08T01:46:08.331Z,18.12
2022-11-08T01:49:11.088Z,18.11
2022-11-08T01:52:34.610Z,18.11
2022-11-08T01:55:33.359Z,18.11
2022-11-08T01:58:28.132Z,18.10
2022-11-08T02:01:18.561Z,18.10
2022-11-08T02:04:11.122Z,18.10
2022-11-08T02:07:03.379Z,18.09
2022-11-08T02:09:55.406Z,18.10
2022-11-08T02:12:48.013Z,18.10
2022-11-08T02:15:39.449Z,18.09
2022-11-08T02:18:33.535Z,18.10
2022-11-08T02:21:29.779Z,18.10
2022-11-08T02:24:21.263Z,18.11
2022-11-08T02:27:15.671Z,18.11
2022-11-08T02:30:08.877Z,18.12
2022-11-08T02:33:00.339Z,18.11
2022-11-08T02:35:58.102Z,18.11
2022-11-08T02:38:53.391Z,18.11
2022-11-08T02:41:44.228Z,18.10
2022-11-08T02:44:35.501Z,18.08
2022-11-08T02:47:27.918Z,18.08
2022-11-08T02:50:19.954Z,18.06
2022-11-08T02:53:10.748Z,18.03
2022-11-08T02:56:01.772Z,18.01
2022-11-08T02:58:52.695Z,17.98
2022-11-08T03:01:44.360Z,17.97
2022-11-08T03:04:37.148Z,17.94
2022-11-08T03:07:29.795Z,17.92
2022-11-08T03:10:21.334Z,17.92
2022-11-08T03:13:12.857Z,17.91
2022-11-08T03:16:07.380Z,17.90
2022-11-08T03:18:58.610Z,17.89
2022-11-08T03:21:53.247Z,17.87
2022-11-08T03:24:44.930Z,17.86
2022-11-08T03:27:36.627Z,17.85
2022-11-08T03:30:28.573Z,17.84
2022-11-08T03:33:19.535Z,17.84
2022-11-08T03:36:12.740Z,17.82
2022-11-08T03:39:03.608Z,17.81
2022-11-08T03:41:56.067Z,17.81
2022-11-08T03:44:47.154Z,17.81
2022-11-08T03:47:42.533Z,17.81
2022-11-08T03:50:36.831Z,17.81
2022-11-08T03:53:28.285Z,17.79
2022-11-08T03:56:19.259Z,17.78
2022-11-08T03:59:14.009Z,17.78
2022-11-08T04:02:05.656Z,17.77
2022-11-08T04:04:58.931Z,17.75
2022-11-08T04:07:50.857Z,17.74
2022-11-08T04:10:42.968Z,17.73
2022-11-08T04:13:53.103Z,17.72
2022-11-08T04:16:45.545Z,17.71
2022-11-08T04:19:55.493Z,17.70
2022-11-08T04:22:46.490Z,17.70
2022-11-08T04:25:39.210Z,17.70
2022-11-08T04:28:31.395Z,17.70
2022-11-08T04:31:23.795Z,17.67
2022-11-08T04:34:14.681Z,17.66
2022-11-08T04:37:05.585Z,17.65
2022-11-08T04:39:57.003Z,17.64
2022-11-08T04:42:48.616Z,17.62
2022-11-08T04:45:39.826Z,17.61
2022-11-08T04:48:31.073Z,17.61
2022-11-08T04:51:24.159Z,17.59
2022-11-08T04:54:16.403Z,17.57
2022-11-08T04:57:07.485Z,17.58
2022-11-08T04:59:58.123Z,17.57
2022-11-08T05:02:48.639Z,17.55
2022-11-08T05:05:39.230Z,17.55
2022-11-08T05:08:30.216Z,17.54
2022-11-08T05:11:22.785Z,17.53
2022-11-08T05:14:13.945Z,17.53
2022-11-08T05:17:04.394Z,17.52
2022-11-08T05:20:12.815Z,17.51
2022-11-08T05:23:22.400Z,17.50
2022-11-08T05:26:13.636Z,17.49
2022-11-08T05:29:05.673Z,17.48
2022-11-08T05:31:57.257Z,17.46
2022-11-08T05:34:49.170Z,17.46
2022-11-08T05:37:44.357Z,17.47
2022-11-08T05:40:38.926Z,17.46
2022-11-08T05:43:30.502Z,17.46
2022-11-08T05:46:22.973Z,17.48
2022-11-08T05:49:15.824Z,17.49
2022-11-08T05:52:08.996Z,17.48
2022-11-08T05:54:59.713Z,17.48
2022-11-08T05:57:52.179Z,17.48
2022-11-08T06:00:43.338Z,17.48
2022-11-08T06:03:35.673Z,17.49
2022-11-08T06:06:27.411Z,17.49
2022-11-08T06:09:20.536Z,17.50
2022-11-08T06:12:11.899Z,17.50
2022-11-08T06:15:05.101Z,17.51
2022-11-08T06:17:55.982Z,17.52
2022-11-08T06:20:46.929Z,17.52
2022-11-08T06:23:37.847Z,17.53
2022-11-08T06:26:29.020Z,17.54
2022-11-08T06:29:20.200Z,17.55
2022-11-08T06:32:11.823Z,17.57
2022-11-08T06:35:02.744Z,17.61
2022-11-08T06:37:59.913Z,17.64
2022-11-08T06:40:52.558Z,17.68
2022-11-08T06:43:43.210Z,17.71
2022-11-08T06:46:34.876Z,17.73
2022-11-08T06:49:30.839Z,17.75
2022-11-08T06:52:21.246Z,17.78
2022-11-08T06:55:14.415Z,17.82
2022-11-08T06:58:05.545Z,17.86
2022-11-08T07:00:56.682Z,17.96
2022-11-08T07:03:50.123Z,18.16
2022-11-08T07:06:41.994Z,18.24
2022-11-08T07:09:33.779Z,18.27
2022-11-08T07:12:25.405Z,18.30
2022-11-08T07:15:18.137Z,18.35
2022-11-08T07:18:10.564Z,18.39
2022-11-08T07:21:05.199Z,18.42
2022-11-08T07:23:56.137Z,18.46
2022-11-08T07:26:47.867Z,18.50
2022-11-08T07:29:38.675Z,18.55
2022-11-08T07:32:29.658Z,18.60
2022-11-08T07:35:22.103Z,18.64
2022-11-08T07:38:14.273Z,18.67
2022-11-08T07:41:06.074Z,18.68
2022-11-08T07:43:57.557Z,18.69
2022-11-08T07:46:49.251Z,18.69
2022-11-08T07:49:40.787Z,18.79
2022-11-08T07:52:32.503Z,19.03
2022-11-08T07:55:24.305Z,19.23
2022-11-08T07:58:17.373Z,19.35
2022-11-08T08:01:08.492Z,19.41
2022-11-08T08:04:00.154Z,19.41
2022-11-08T08:06:50.694Z,19.38
2022-11-08T08:09:42.786Z,19.35
2022-11-08T08:12:35.640Z,19.37
2022-11-08T08:15:27.655Z,19.42
2022-11-08T08:18:21.323Z,19.47
2022-11-08T08:21:12.857Z,19.51
2022-11-08T08:24:04.767Z,19.60
2022-11-08T08:26:55.904Z,19.72
2022-11-08T08:29:47.567Z,19.81
2022-11-08T08:32:38.647Z,19.88
2022-11-08T08:35:29.452Z,20.06
2022-11-08T08:38:20.512Z,20.86
2022-11-08T08:41:11.049Z,21.64
2022-11-08T08:44:01.648Z,22.95
2022-11-08T08:46:52.790Z,23.96
2022-11-08T08:49:43.382Z,24.54
2022-11-08T08:52:34.044Z,24.96
2022-11-08T08:55:24.784Z,25.37
2022-11-08T08:58:15.669Z,25.44
2022-11-08T09:04:19.183Z,24.82
2022-11-08T09:07:09.887Z,24.55
2022-11-08T09:10:01.349Z,24.39
2022-11-08T09:12:51.937Z,24.15
2022-11-08T09:15:42.225Z,23.88
2022-11-08T09:18:33.555Z,23.69
2022-11-08T09:21:24.751Z,23.54
2022-11-08T09:24:15.944Z,23.43
2022-11-08T09:27:07.024Z,23.33
2022-11-08T09:29:58.611Z,23.26
2022-11-08T09:33:05.212Z,23.28
2022-11-08T09:35:56.626Z,23.31
2022-11-08T09:38:49.328Z,23.26
2022-11-08T09:41:59.932Z,23.22
2022-11-08T09:45:12.136Z,23.14
2022-11-08T09:48:07.343Z,23.01
2022-11-08T09:51:01.048Z,22.87
2022-11-08T09:53:56.511Z,22.73
2022-11-08T09:56:48.091Z,22.58
2022-11-08T09:59:44.936Z,22.45
2022-11-08T10:02:38.314Z,22.31
2022-11-08T10:05:35.803Z,22.24
2022-11-08T10:08:34.516Z,22.27
2022-11-08T10:11:38.235Z,22.32
2022-11-08T10:14:52.357Z,22.42
2022-11-08T10:18:00.688Z,22.56
2022-11-08T10:21:04.710Z,22.59
2022-11-08T10:24:05.253Z,22.58
2022-11-08T10:26:59.386Z,22.68
2022-11-08T10:29:52.136Z,22.71
2022-11-08T10:32:44.039Z,22.71
2022-11-08T10:35:41.150Z,22.78
2022-11-08T10:38:37.304Z,22.86
2022-11-08T10:41:33.870Z,22.89
2022-11-08T10:44:27.400Z,22.86
2022-11-08T10:47:23.795Z,22.79
2022-11-08T10:50:19.192Z,22.71
2022-11-08T10:53:19.973Z,22.68
2022-11-08T10:56:11.484Z,22.71
2022-11-08T10:59:02.933Z,22.67
2022-11-08T11:01:54.566Z,22.60
2022-11-08T11:04:45.459Z,22.55
2022-11-08T11:07:37.830Z,22.55
2022-11-08T11:10:30.468Z,22.57
2022-11-08T11:16:18.111Z,22.60
2022-11-08T11:19:16.218Z,22.69
2022-11-08T11:22:08.671Z,22.81
2022-11-08T11:25:05.671Z,22.91
2022-11-08T11:28:00.433Z,23.00
2022-11-08T11:31:03.376Z,23.10
2022-11-08T11:33:55.173Z,23.13
2022-11-08T11:36:49.517Z,23.17
2022-11-08T11:39:49.728Z,23.25
2022-11-08T11:42:51.356Z,23.29
2022-11-08T11:45:49.139Z,23.35
2022-11-08T11:48:46.980Z,23.38
2022-11-08T11:51:37.569Z,23.37
2022-11-08T11:54:32.564Z,23.38
2022-11-08T11:57:36.127Z,23.43
2022-11-08T12:00:27.336Z,23.44
2022-11-08T12:03:33.894Z,23.42
2022-11-08T12:06:38.065Z,23.47
2022-11-08T12:09:45.613Z,23.58
2022-11-08T12:12:51.405Z,23.66
2022-11-08T12:15:49.126Z,23.72
2022-11-08T12:18:55.255Z,23.79
2022-11-08T12:21:59.527Z,23.85
2022-11-08T12:24:57.556Z,23.83
2022-11-08T12:27:54.438Z,23.80
2022-11-08T12:30:51.310Z,23.78
2022-11-08T12:33:52.739Z,23.79
2022-11-08T12:36:55.387Z,23.82
2022-11-08T12:39:48.813Z,23.86
2022-11-08T12:42:53.214Z,23.89
2022-11-08T12:45:56.716Z,23.93
2022-11-08T12:49:12.012Z,23.95
2022-11-08T12:52:18.983Z,23.92
2022-11-08T12:55:17.925Z,23.87
2022-11-08T12:58:33.003Z,23.86
2022-11-08T13:01:25.603Z,23.80
2022-11-08T13:04:31.749Z,23.72
2022-11-08T13:07:42.308Z,23.71
2022-11-08T13:10:43.450Z,23.71
2022-11-08T13:13:47.452Z,23.60
2022-11-08T13:16:44.051Z,23.37
2022-11-08T13:20:00.686Z,23.19
2022-11-08T13:23:13.250Z,22.97
2022-11-08T13:26:24.504Z,22.93
2022-11-08T13:29:25.906Z,22.95
2022-11-08T13:32:30.020Z,22.91
2022-11-08T13:35:28.341Z,22.84
2022-11-08T13:38:32.315Z,22.82
2022-11-08T13:41:24.494Z,22.66
2022-11-08T13:44:44.853Z,22.60
2022-11-08T13:48:00.432Z,22.58
2022-11-08T13:50:54.097Z,22.53
2022-11-08T13:53:52.306Z,22.48
2022-11-08T13:56:54.805Z,22.48
2022-11-08T13:59:58.955Z,22.50
2022-11-08T14:02:49.991Z,22.51
2022-11-08T14:05:49.988Z,22.49
2022-11-08T14:08:50.900Z,22.46
2022-11-08T14:11:52.618Z,22.42
2022-11-08T14:14:48.554Z,22.39
2022-11-08T14:17:45.412Z,22.38
2022-11-08T14:20:41.559Z,22.37
2022-11-08T14:23:36.522Z,22.37
2022-11-08T14:26:28.045Z,22.36
2022-11-08T14:29:21.491Z,22.33
2022-11-08T14:32:20.349Z,22.31
2022-11-08T14:35:27.720Z,22.27
2022-11-08T14:38:19.056Z,22.20
2022-11-08T14:41:15.812Z,22.13
2022-11-08T14:44:07.155Z,22.08
2022-11-08T14:46:59.133Z,22.02
2022-11-08T14:49:51.254Z,21.99
2022-11-08T14:52:42.034Z,21.96
2022-11-08T14:55:33.352Z,21.92
2022-11-08T14:58:23.973Z,21.86
2022-11-08T15:01:16.326Z,21.78
2022-11-08T15:04:14.648Z,21.72
2022-11-08T15:07:10.560Z,21.67
2022-11-08T15:10:10.631Z,21.61
2022-11-08T15:13:01.941Z,21.55
2022-11-08T15:15:57.892Z,21.49
2022-11-08T15:18:48.391Z,21.44
2022-11-08T15:21:49.996Z,21.40
2022-11-08T15:24:41.918Z,21.35
2022-11-08T15:27:33.094Z,21.30
2022-11-08T15:30:33.944Z,21.25
2022-11-08T15:33:28.426Z,21.21
2022-11-08T15:36:27.319Z,21.18
2022-11-08T15:39:26.161Z,21.14
2022-11-08T15:42:18.938Z,21.10
2022-11-08T15:45:26.203Z,21.08
2022-11-08T15:48:26.986Z,21.05
2022-11-08T15:51:19.647Z,21.02
2022-11-08T15:54:11.397Z,21.00
2022-11-08T15:57:03.318Z,20.98
2022-11-08T15:59:54.677Z,20.95
2022-11-08T16:02:46.545Z,20.91
2022-11-08T16:05:37.400Z,20.87
2022-11-08T16:08:29.153Z,20.83
2022-11-08T16:11:24.889Z,20.79
2022-11-08T16:14:20.281Z,20.75
2022-11-08T16:17:15.547Z,20.70
2022-11-08T16:20:18.753Z,20.66
2022-11-08T16:23:11.853Z,20.63
2022-11-08T16:26:03.523Z,20.59
2022-11-08T16:28:55.957Z,20.56
2022-11-08T16:31:47.610Z,20.53
2022-11-08T16:34:39.316Z,20.50
2022-11-08T16:37:30.080Z,20.47
2022-11-08T16:40:23.350Z,20.44
2022-11-08T16:43:15.038Z,20.43
2022-11-08T16:46:08.558Z,20.42
2022-11-08T16:49:00.006Z,20.41
2022-11-08T16:51:51.370Z,20.40
2022-11-08T16:54:42.744Z,20.40
2022-11-08T16:57:35.021Z,20.40
2022-11-08T17:00:26.024Z,20.39
2022-11-08T17:03:20.622Z,20.39
2022-11-08T17:06:18.272Z,20.38
2022-11-08T17:09:09.598Z,20.37
2022-11-08T17:12:00.735Z,20.35
2022-11-08T17:14:52.480Z,20.33
2022-11-08T17:17:43.525Z,20.32
2022-11-08T17:20:34.091Z,20.31
2022-11-08T17:23:26.148Z,20.30
2022-11-08T17:26:19.424Z,20.29
2022-11-08T17:29:11.422Z,20.27
2022-11-08T17:32:04.450Z,20.25
2022-11-08T17:34:56.725Z,20.22
2022-11-08T17:37:48.344Z,20.20
2022-11-08T17:40:42.551Z,20.17
2022-11-08T17:43:35.117Z,20.14
2022-11-08T17:46:27.714Z,20.11
2022-11-08T17:49:20.432Z,20.08
2022-11-08T17:52:13.033Z,20.05
2022-11-08T17:55:07.236Z,20.02
2022-11-08T17:57:59.311Z,20.00
2022-11-08T18:00:55.078Z,19.97
2022-11-08T18:03:47.596Z,19.95
2022-11-08T18:06:40.389Z,19.93
2022-11-08T18:09:34.949Z,19.92
2022-11-08T18:12:27.747Z,19.90
2022-11-08T18:15:19.850Z,19.89
2022-11-08T18:18:10.778Z,19.88
2022-11-08T18:21:02.343Z,19.86
2022-11-08T18:23:53.239Z,19.83
2022-11-08T18:26:44.457Z,19.82
2022-11-08T18:29:35.813Z,19.81
2022-11-08T18:32:28.463Z,19.80
2022-11-08T18:35:24.590Z,19.80
2022-11-08T18:38:16.428Z,19.78
2022-11-08T18:41:10.526Z,19.77
2022-11-08T18:44:06.093Z,19.77
2022-11-08T18:46:57.029Z,19.75
2022-11-08T18:49:48.852Z,19.74
2022-11-08T18:52:45.419Z,19.73
2022-11-08T18:55:36.882Z,19.72
2022-11-08T18:58:27.806Z,19.71
2022-11-08T19:01:20.782Z,19.71
2022-11-08T19:04:12.450Z,19.71
2022-11-08T19:07:03.350Z,19.72
2022-11-08T19:09:55.218Z,19.73
2022-11-08T19:12:45.945Z,19.73
2022-11-08T19:15:36.063Z,19.74
2022-11-08T19:18:30.952Z,19.73
2022-11-08T19:21:23.704Z,19.73
2022-11-08T19:24:14.726Z,19.74
2022-11-08T19:27:05.980Z,19.74
2022-11-08T19:30:00.793Z,19.75
2022-11-08T19:32:52.513Z,19.75
2022-11-08T19:35:44.018Z,19.75
2022-11-08T19:38:38.180Z,19.77
2022-11-08T19:41:31.443Z,19.78
2022-11-08T19:44:24.009Z,19.79
2022-11-08T19:47:15.756Z,19.81
2022-11-08T19:50:09.571Z,19.81
2022-11-08T19:53:06.465Z,19.82
2022-11-08T19:56:04.797Z,19.82
2022-11-08T19:58:59.474Z,19.82
2022-11-08T20:01:53.165Z,19.82
2022-11-08T20:04:44.757Z,19.83
2022-11-08T20:07:37.506Z,19.83
2022-11-08T20:10:30.924Z,19.83
2022-11-08T20:13:24.222Z,19.82
2022-11-08T20:16:18.813Z,19.81
2022-11-08T20:19:12.375Z,19.81
2022-11-08T20:22:04.092Z,19.81
2022-11-08T20:24:54.953Z,19.81
2022-11-08T20:27:45.234Z,19.81
2022-11-08T20:30:36.682Z,19.83
2022-11-08T20:33:28.118Z,19.84
2022-11-08T20:36:22.051Z,19.86
2022-11-08T20:39:13.897Z,19.86
2022-11-08T20:42:05.606Z,19.86
2022-11-08T20:44:56.908Z,19.85
2022-11-08T20:47:48.360Z,19.87
2022-11-08T20:50:40.827Z,19.90
2022-11-08T20:53:34.271Z,19.93
2022-11-08T20:56:26.430Z,19.93
2022-11-08T21:02:22.154Z,19.93
2022-11-08T21:05:12.879Z,19.93
2022-11-08T21:08:56.112Z,19.92
2022-11-08T21:11:17.478Z,19.90
2022-11-08T21:14:09.095Z,19.90
2022-11-08T21:17:21.561Z,19.89
2022-11-08T21:20:14.111Z,19.89
2022-11-08T21:23:04.684Z,19.88
2022-11-08T21:25:56.266Z,19.87
2022-11-08T21:28:47.645Z,19.87
2022-11-08T21:31:39.903Z,19.87
2022-11-08T21:34:32.931Z,19.86
2022-11-08T21:37:24.027Z,19.86
2022-11-08T21:40:17.502Z,19.86
2022-11-08T21:43:12.467Z,19.88
2022-11-08T21:46:12.802Z,19.89
2022-11-08T21:49:10.827Z,19.91
2022-11-08T21:52:04.170Z,19.92
2022-11-08T21:54:56.788Z,19.92
2022-11-08T21:57:49.683Z,19.93
2022-11-08T22:00:42.192Z,19.93
2022-11-08T22:03:37.296Z,19.92
2022-11-08T22:06:30.313Z,19.92
2022-11-08T22:09:21.769Z,19.90
2022-11-08T22:12:13.757Z,19.88
2022-11-08T22:15:07.102Z,19.85
2022-11-08T22:18:15.583Z,19.83
2022-11-08T22:21:27.645Z,19.83
2022-11-08T22:24:22.579Z,19.83
2022-11-08T22:27:14.733Z,19.84
2022-11-08T22:30:11.508Z,19.84
2022-11-08T22:33:05.251Z,19.82
2022-11-08T22:35:56.684Z,19.80
2022-11-08T22:38:48.215Z,19.78
2022-11-08T22:41:41.940Z,19.76
2022-11-08T22:44:32.803Z,19.73
2022-11-08T22:47:23.235Z,19.72
2022-11-08T22:50:14.224Z,19.69
2022-11-08T22:53:05.839Z,19.68
2022-11-08T22:55:57.645Z,19.67
2022-11-08T22:58:48.109Z,19.67
2022-11-08T23:01:39.717Z,19.68
2022-11-08T23:04:31.611Z,19.70
2022-11-08T23:07:22.503Z,19.72
2022-11-08T23:10:14.311Z,19.71
2022-11-08T23:13:23.667Z,19.68
2022-11-08T23:16:32.032Z,19.66
2022-11-08T23:19:42.832Z,19.66
2022-11-08T23:22:50.413Z,19.66
2022-11-08T23:25:41.323Z,19.65
2022-11-08T23:28:51.477Z,19.64
2022-11-08T23:31:43.214Z,19.61
2022-11-08T23:34:34.356Z,19.60
2022-11-08T23:37:24.950Z,19.58
2022-11-08T23:40:36.440Z,19.56
2022-11-08T23:43:45.030Z,19.54
2022-11-08T23:46:37.269Z,19.51
2022-11-08T23:49:30.290Z,19.50
2022-11-08T23:52:22.057Z,19.52
2022-11-08T23:55:13.725Z,19.53
2022-11-08T23:58:05.969Z,19.52
